createdAt,value
2022-12-03T00:00:33.912Z,102.00
2022-12-03T00:04:20.200Z,109.20
2022-12-03T00:07:47.043Z,119.10
2022-12-03T00:11:13.788Z,110.20
2022-12-03T00:14:44.627Z,127.50
2022-12-03T00:18:12.179Z,72.70
2022-12-03T00:21:39.063Z,112.50
2022-12-03T00:25:07.061Z,127.00
2022-12-03T00:28:34.161Z,109.10
2022-12-03T00:32:01.099Z,122.70
2022-12-03T00:35:27.762Z,119.40
2022-12-03T00:38:54.536Z,122.10
2022-12-03T00:42:21.946Z,130.30
2022-12-03T00:45:48.853Z,109.40
2022-12-03T00:49:15.742Z,88.50
2022-12-03T00:52:42.600Z,116.40
2022-12-03T00:56:11.024Z,100.30
2022-12-03T00:59:37.950Z,122.30
2022-12-03T01:03:06.738Z,112.80
2022-12-03T01:06:33.589Z,129.00
2022-12-03T01:10:00.440Z,141.90
2022-12-03T01:13:27.756Z,119.60
2022-12-03T01:16:54.753Z,110.90
2022-12-03T01:20:21.886Z,126.80
2022-12-03T01:23:48.752Z,123.10
2022-12-03T01:27:15.586Z,91.50
2022-12-03T01:30:56.249Z,121.30
2022-12-03T01:34:22.933Z,112.40
2022-12-03T01:37:50.095Z,123.20
2022-12-03T01:41:17.935Z,126.20
2022-12-03T01:44:45.980Z,128.20
2022-12-03T01:48:16.611Z,118.10
2022-12-03T01:51:43.911Z,122.10
2022-12-03T01:55:17.313Z,123.30
2022-12-03T01:58:45.650Z,105.00
2022-12-03T02:02:21.062Z,111.70
2022-12-03T02:05:48.427Z,88.10
2022-12-03T02:09:16.714Z,102.70
2022-12-03T02:12:48.620Z,88.30
2022-12-03T02:16:15.735Z,115.10
2022-12-03T02:19:42.722Z,109.90
2022-12-03T02:23:15.102Z,114.10
2022-12-03T02:26:41.896Z,101.90
2022-12-03T02:30:11.467Z,105.40
2022-12-03T02:33:39.710Z,98.00
2022-12-03T02:37:08.593Z,111.00
2022-12-03T02:40:36.278Z,99.30
2022-12-03T02:44:03.790Z,110.60
2022-12-03T02:47:31.951Z,104.00
2022-12-03T02:51:02.646Z,80.20
2022-12-03T02:54:29.943Z,112.20
2022-12-03T02:57:57.255Z,89.20
2022-12-03T03:01:24.453Z,113.10
2022-12-03T03:04:52.395Z,114.50
2022-12-03T03:08:20.553Z,102.90
2022-12-03T03:11:47.520Z,105.90
2022-12-03T03:15:14.848Z,116.90
2022-12-03T03:18:42.448Z,103.10
2022-12-03T03:22:10.791Z,110.10
2022-12-03T03:25:38.205Z,111.10
2022-12-03T03:29:05.118Z,110.60
2022-12-03T03:32:33.024Z,103.60
2022-12-03T03:36:02.126Z,109.20
2022-12-03T03:39:29.415Z,113.20
2022-12-03T03:42:58.171Z,109.70
2022-12-03T03:46:25.606Z,110.20
2022-12-03T03:49:53.049Z,114.50
2022-12-03T03:53:20.767Z,116.90
2022-12-03T03:56:48.209Z,94.40
2022-12-03T04:00:17.095Z,126.00
2022-12-03T04:03:44.236Z,103.00
2022-12-03T04:07:11.105Z,112.30
2022-12-03T04:10:55.606Z,114.10
2022-12-03T04:14:22.221Z,101.80
2022-12-03T04:18:09.677Z,90.80
2022-12-03T04:21:54.153Z,100.20
2022-12-03T04:25:39.000Z,97.90
2022-12-03T04:29:06.071Z,99.20
2022-12-03T04:32:50.518Z,89.20
2022-12-03T04:36:17.415Z,99.50
2022-12-03T04:39:44.744Z,96.30
2022-12-03T04:43:13.182Z,88.50
2022-12-03T04:46:40.351Z,92.20
2022-12-03T04:50:09.295Z,87.50
2022-12-03T04:53:36.463Z,87.00
2022-12-03T04:57:04.062Z,84.10
2022-12-03T05:00:31.077Z,80.30
2022-12-03T05:03:58.598Z,87.80
2022-12-03T05:07:25.390Z,89.70
2022-12-03T05:10:52.275Z,81.70
2022-12-03T05:14:19.576Z,83.90
2022-12-03T05:17:46.806Z,83.10
2022-12-03T05:21:14.224Z,89.10
2022-12-03T05:24:41.012Z,85.90
2022-12-03T05:28:08.268Z,73.00
2022-12-03T05:31:35.187Z,90.30
2022-12-03T05:35:01.902Z,84.00
2022-12-03T05:38:28.702Z,94.60
2022-12-03T05:42:13.373Z,90.50
2022-12-03T05:45:41.593Z,95.00
2022-12-03T05:49:08.356Z,84.20
2022-12-03T05:52:35.470Z,95.60
2022-12-03T05:56:02.485Z,141.70
2022-12-03T05:59:29.619Z,106.50
2022-12-03T06:02:57.268Z,94.50
2022-12-03T06:06:24.183Z,98.50
2022-12-03T06:09:50.966Z,94.20
2022-12-03T06:13:18.340Z,91.50
2022-12-03T06:16:45.244Z,90.10
2022-12-03T06:20:15.004Z,88.30
2022-12-03T06:23:44.879Z,92.40
2022-12-03T06:27:11.978Z,77.70
2022-12-03T06:30:38.729Z,83.80
2022-12-03T06:34:05.518Z,99.50
2022-12-03T06:37:32.540Z,93.80
2022-12-03T06:40:59.246Z,104.00
2022-12-03T06:44:26.292Z,87.60
2022-12-03T06:47:53.099Z,89.60
2022-12-03T06:51:19.927Z,87.60
2022-12-03T06:54:46.977Z,111.90
2022-12-03T06:58:14.717Z,85.10
2022-12-03T07:01:41.523Z,93.60
2022-12-03T07:05:09.778Z,103.30
2022-12-03T07:08:36.782Z,99.30
2022-12-03T07:12:03.476Z,92.70
2022-12-03T07:15:30.595Z,103.90
2022-12-03T07:18:57.231Z,95.00
2022-12-03T07:22:24.141Z,103.10
2022-12-03T07:25:50.939Z,96.70
2022-12-03T07:29:17.893Z,91.10
2022-12-03T07:32:44.990Z,87.50
2022-12-03T07:36:12.677Z,104.90
2022-12-03T07:39:39.563Z,87.00
2022-12-03T07:43:06.683Z,98.10
2022-12-03T07:46:33.441Z,101.30
2022-12-03T07:50:00.316Z,93.40
2022-12-03T07:53:27.164Z,99.80
2022-12-03T07:56:59.580Z,99.50
2022-12-03T08:00:28.577Z,87.00
2022-12-03T08:03:55.568Z,89.00
2022-12-03T08:07:22.732Z,94.00
2022-12-03T08:10:49.660Z,107.50
2022-12-03T08:14:19.520Z,93.00
2022-12-03T08:17:52.398Z,91.10
2022-12-03T08:21:22.700Z,94.30
2022-12-03T08:24:49.553Z,91.40
2022-12-03T08:28:19.961Z,89.50
2022-12-03T08:31:52.153Z,88.70
2022-12-03T08:35:24.873Z,96.80
2022-12-03T08:38:53.675Z,83.40
2022-12-03T08:42:41.768Z,83.90
2022-12-03T08:46:15.745Z,92.80
2022-12-03T08:49:43.358Z,88.50
2022-12-03T08:53:26.630Z,92.80
2022-12-03T08:56:53.636Z,85.30
2022-12-03T09:00:23.972Z,93.10
2022-12-03T09:03:54.482Z,79.30
2022-12-03T09:07:21.791Z,88.30
2022-12-03T09:10:48.735Z,90.40
2022-12-03T09:14:18.995Z,94.80
2022-12-03T09:17:45.848Z,83.30
2022-12-03T09:21:12.823Z,95.50
2022-12-03T09:24:39.606Z,88.70
2022-12-03T09:28:06.542Z,96.10
2022-12-03T09:31:34.520Z,97.30
2022-12-03T09:35:01.167Z,100.50
2022-12-03T09:38:27.980Z,107.00
2022-12-03T09:41:55.958Z,141.80
2022-12-03T09:45:22.815Z,119.70
2022-12-03T09:48:49.692Z,95.70
2022-12-03T09:52:22.344Z,101.10
2022-12-03T09:55:50.464Z,102.20
2022-12-03T09:59:18.395Z,103.00
2022-12-03T10:02:46.416Z,97.70
2022-12-03T10:06:17.956Z,92.70
2022-12-03T10:09:44.664Z,105.80
2022-12-03T10:13:23.892Z,112.10
2022-12-03T10:16:52.923Z,130.10
2022-12-03T10:20:22.362Z,132.20
2022-12-03T10:27:31.169Z,112.40
2022-12-03T10:30:59.366Z,117.00
2022-12-03T10:34:31.905Z,111.30
2022-12-03T10:38:04.306Z,114.20
2022-12-03T10:41:31.624Z,98.10
2022-12-03T10:45:16.499Z,109.90
2022-12-03T10:48:44.708Z,114.00
2022-12-03T10:52:26.149Z,106.50
2022-12-03T10:55:58.817Z,107.90
2022-12-03T10:59:28.538Z,119.90
2022-12-03T11:06:25.428Z,101.70
2022-12-03T11:09:55.794Z,113.40
2022-12-03T11:15:15.205Z,117.20
2022-12-03T11:19:03.342Z,137.10
2022-12-03T11:22:41.968Z,121.80
2022-12-03T11:26:08.737Z,105.20
2022-12-03T11:30:04.646Z,125.80
2022-12-03T11:33:33.303Z,87.50
2022-12-03T11:37:29.335Z,127.30
2022-12-03T11:48:44.909Z,121.90
2022-12-03T11:52:30.620Z,115.30
2022-12-03T11:56:08.423Z,114.70
2022-12-03T11:59:32.203Z,113.90
2022-12-03T12:02:57.334Z,124.40
2022-12-03T12:06:21.696Z,123.30
2022-12-03T12:09:53.600Z,130.80
2022-12-03T12:13:54.810Z,150.70
2022-12-03T12:17:32.940Z,138.20
2022-12-03T12:21:16.209Z,145.60
2022-12-03T12:24:51.167Z,144.50
2022-12-03T12:28:14.694Z,121.80
2022-12-03T12:31:38.070Z,124.50
2022-12-03T12:35:13.328Z,145.20
2022-12-03T12:38:36.739Z,138.10
2022-12-03T12:42:01.153Z,136.20
2022-12-03T12:45:27.381Z,129.10
2022-12-03T12:48:50.683Z,142.70
2022-12-03T12:52:14.656Z,149.20
2022-12-03T12:55:38.730Z,144.10
2022-12-03T12:59:12.234Z,131.00
2022-12-03T13:02:41.792Z,142.90
2022-12-03T13:06:11.005Z,163.50
2022-12-03T13:09:34.495Z,152.20
2022-12-03T13:12:57.936Z,158.90
2022-12-03T13:16:27.552Z,147.80
2022-12-03T13:19:58.334Z,144.00
2022-12-03T13:23:33.971Z,141.00
2022-12-03T13:26:58.639Z,196.00
2022-12-03T13:30:23.237Z,170.10
2022-12-03T13:33:46.820Z,159.70
2022-12-03T13:37:16.464Z,198.40
2022-12-03T13:40:40.957Z,177.80
2022-12-03T13:44:15.352Z,170.60
2022-12-03T13:47:39.750Z,155.30
2022-12-03T13:51:19.464Z,148.70
2022-12-03T13:54:43.333Z,174.60
2022-12-03T13:58:06.621Z,147.80
2022-12-03T14:01:29.901Z,148.90
2022-12-03T14:04:58.447Z,144.90
2022-12-03T14:08:23.425Z,163.10
2022-12-03T14:12:05.075Z,168.20
2022-12-03T14:15:28.578Z,226.50
2022-12-03T14:18:51.830Z,188.50
2022-12-03T14:22:15.062Z,178.20
2022-12-03T14:25:38.214Z,173.50
2022-12-03T14:29:05.852Z,179.30
2022-12-03T14:32:31.965Z,153.20
2022-12-03T14:35:55.659Z,176.10
2022-12-03T14:39:19.105Z,168.70
2022-12-03T14:42:42.401Z,173.10
2022-12-03T14:46:06.053Z,165.70
2022-12-03T14:49:29.604Z,150.20
2022-12-03T14:52:52.916Z,157.70
2022-12-03T14:56:16.134Z,172.30
2022-12-03T14:59:40.430Z,184.10
2022-12-03T15:03:03.871Z,156.00
2022-12-03T15:06:27.570Z,187.40
2022-12-03T15:09:50.768Z,195.80
2022-12-03T15:13:14.121Z,171.00
2022-12-03T15:16:37.522Z,189.20
2022-12-03T15:20:00.823Z,180.20
2022-12-03T15:23:24.221Z,169.40
2022-12-03T15:26:48.631Z,132.20
2022-12-03T15:30:12.405Z,154.20
2022-12-03T15:33:36.734Z,177.00
2022-12-03T15:37:00.148Z,168.70
2022-12-03T15:40:23.408Z,183.90
2022-12-03T15:43:46.950Z,182.40
2022-12-03T15:47:10.341Z,179.20
2022-12-03T15:50:38.586Z,162.00
2022-12-03T15:54:03.725Z,191.10
2022-12-03T15:57:27.407Z,186.10
2022-12-03T16:00:50.994Z,152.80
2022-12-03T16:04:14.413Z,177.60
2022-12-03T16:07:38.317Z,168.80
2022-12-03T16:11:02.110Z,172.10
2022-12-03T16:14:25.354Z,177.50
2022-12-03T16:17:48.707Z,161.40
2022-12-03T16:21:12.256Z,165.60
2022-12-03T16:24:35.903Z,176.70
2022-12-03T16:27:59.355Z,177.60
2022-12-03T16:31:23.818Z,176.90
2022-12-03T16:34:47.158Z,174.10
2022-12-03T16:38:11.019Z,176.90
2022-12-03T16:41:34.242Z,161.20
2022-12-03T16:45:15.905Z,185.00
2022-12-03T16:48:39.441Z,189.40
2022-12-03T16:52:03.420Z,177.60
2022-12-03T16:55:27.194Z,170.10
2022-12-03T16:58:51.221Z,210.70
2022-12-03T17:02:14.735Z,195.00
2022-12-03T17:05:39.909Z,198.80
2022-12-03T17:09:03.309Z,182.60
2022-12-03T17:12:37.492Z,183.10
2022-12-03T17:16:10.346Z,171.50
2022-12-03T17:19:33.728Z,176.50
2022-12-03T17:22:57.629Z,195.50
2022-12-03T17:26:21.002Z,186.00
2022-12-03T17:29:44.328Z,161.40
2022-12-03T17:33:07.713Z,182.20
2022-12-03T17:36:31.086Z,166.20
2022-12-03T17:39:54.685Z,193.30
2022-12-03T17:43:18.448Z,172.60
2022-12-03T17:46:41.822Z,175.10
2022-12-03T17:50:08.497Z,181.20
2022-12-03T17:53:31.798Z,181.50
2022-12-03T17:56:55.266Z,181.30
2022-12-03T18:00:19.835Z,188.40
2022-12-03T18:03:43.158Z,184.80
2022-12-03T18:07:06.597Z,207.80
2022-12-03T18:10:29.894Z,186.60
2022-12-03T18:13:53.256Z,178.80
2022-12-03T18:17:16.623Z,198.00
2022-12-03T18:20:39.949Z,179.60
2022-12-03T18:24:04.491Z,194.20
2022-12-03T18:27:28.370Z,195.40
2022-12-03T18:30:52.910Z,184.00
2022-12-03T18:34:16.513Z,173.70
2022-12-03T18:37:40.062Z,209.70
2022-12-03T18:41:03.897Z,179.30
2022-12-03T18:44:28.865Z,198.70
2022-12-03T18:47:52.554Z,204.70
2022-12-03T18:51:18.176Z,180.50
2022-12-03T18:54:41.792Z,178.90
2022-12-03T18:58:05.494Z,175.00
2022-12-03T19:01:29.060Z,186.00
2022-12-03T19:04:52.402Z,197.20
2022-12-03T19:08:15.696Z,176.70
2022-12-03T19:11:39.287Z,143.20
2022-12-03T19:15:03.264Z,180.70
2022-12-03T19:18:27.530Z,185.90
2022-12-03T19:21:50.879Z,197.20
2022-12-03T19:25:14.207Z,181.60
2022-12-03T19:28:37.654Z,197.70
2022-12-03T19:32:01.195Z,192.90
2022-12-03T19:35:24.584Z,184.50
2022-12-03T19:38:55.034Z,194.90
2022-12-03T19:42:20.180Z,175.70
2022-12-03T19:45:43.509Z,189.90
2022-12-03T19:49:07.479Z,194.20
2022-12-03T19:52:30.939Z,200.30
2022-12-03T19:55:55.881Z,221.10
2022-12-03T19:59:19.235Z,205.60
2022-12-03T20:02:42.722Z,178.30
2022-12-03T20:06:09.278Z,183.50
2022-12-03T20:09:32.944Z,208.50
2022-12-03T20:12:56.289Z,216.00
2022-12-03T20:16:20.256Z,223.10
2022-12-03T20:19:44.378Z,225.80
2022-12-03T20:23:07.617Z,214.90
2022-12-03T20:26:31.603Z,202.50
2022-12-03T20:29:55.244Z,193.60
2022-12-03T20:33:18.844Z,204.10
2022-12-03T20:36:43.595Z,185.70
2022-12-03T20:40:09.547Z,203.40
2022-12-03T20:43:33.323Z,177.30
2022-12-03T20:46:56.612Z,210.70
2022-12-03T20:50:20.125Z,175.20
2022-12-03T20:53:44.630Z,202.70
2022-12-03T20:57:07.923Z,207.20
2022-12-03T21:00:31.739Z,192.60
2022-12-03T21:03:56.405Z,167.50
2022-12-03T21:07:19.793Z,186.80
2022-12-03T21:10:46.846Z,188.60
2022-12-03T21:14:10.862Z,181.50
2022-12-03T21:17:34.281Z,188.30
2022-12-03T21:21:00.140Z,183.40
2022-12-03T21:24:23.388Z,183.90
2022-12-03T21:27:46.692Z,182.60
2022-12-03T21:31:12.201Z,191.70
2022-12-03T21:34:36.640Z,185.10
2022-12-03T21:38:00.326Z,177.60
2022-12-03T21:41:23.858Z,195.30
2022-12-03T21:44:47.087Z,179.70
2022-12-03T21:48:11.215Z,159.50
2022-12-03T21:51:35.171Z,177.80
2022-12-03T21:54:58.584Z,151.40
2022-12-03T21:58:21.857Z,173.20
2022-12-03T22:01:47.352Z,178.80
2022-12-03T22:05:11.564Z,167.80
2022-12-03T22:08:35.218Z,175.20
2022-12-03T22:12:00.239Z,178.20
2022-12-03T22:15:23.640Z,172.70
2022-12-03T22:18:47.009Z,170.90
2022-12-03T22:22:10.288Z,181.10
2022-12-03T22:25:33.849Z,170.40
2022-12-03T22:28:57.174Z,189.60
2022-12-03T22:32:20.757Z,180.30
2022-12-03T22:35:53.297Z,178.50
2022-12-03T22:39:16.689Z,182.50
2022-12-03T22:42:40.103Z,187.30
2022-12-03T22:46:04.224Z,171.80
2022-12-03T22:49:28.715Z,173.40
2022-12-03T22:52:52.120Z,166.90
2022-12-03T22:56:16.584Z,172.10
2022-12-03T22:59:39.860Z,171.40
2022-12-03T23:03:04.206Z,173.50
2022-12-03T23:06:29.536Z,169.30
2022-12-03T23:09:53.060Z,153.20
2022-12-03T23:13:18.850Z,183.80
2022-12-03T23:16:42.308Z,161.50
2022-12-03T23:20:08.721Z,165.60
2022-12-03T23:23:33.315Z,186.90
2022-12-03T23:26:57.850Z,187.00
2022-12-03T23:30:21.506Z,160.90
2022-12-03T23:33:45.716Z,163.90
2022-12-03T23:37:09.359Z,179.20
2022-12-03T23:40:33.732Z,164.60
2022-12-03T23:43:57.833Z,169.40
2022-12-03T23:47:21.498Z,170.50
2022-12-03T23:50:45.013Z,176.60
2022-12-03T23:54:08.672Z,172.60
2022-12-03T23:57:32.273Z,164.20
